createdAt,value
2018-10-07T00:01:23.940Z,13.83
2018-10-07T00:03:53.014Z,14.50
2018-10-07T00:06:26.576Z,16.43
2018-10-07T00:08:56.668Z,13.57
2018-10-07T00:11:25.871Z,15.07
2018-10-07T00:13:55.845Z,16.97
2018-10-07T00:16:24.921Z,15.87
2018-10-07T00:18:54.581Z,14.53
2018-10-07T00:21:23.680Z,15.20
2018-10-07T00:23:52.785Z,18.57
2018-10-07T00:26:21.887Z,17.40
2018-10-07T00:28:50.963Z,14.60
2018-10-07T00:31:20.043Z,16.13
2018-10-07T00:33:49.279Z,24.63
2018-10-07T00:36:18.471Z,17.83
2018-10-07T00:38:47.589Z,16.97
2018-10-07T00:41:16.697Z,20.90
2018-10-07T00:43:45.783Z,15.73
2018-10-07T00:46:14.884Z,16.53
2018-10-07T00:48:43.984Z,17.57
2018-10-07T00:51:13.062Z,20.10
2018-10-07T00:53:42.887Z,17.13
2018-10-07T00:56:12.014Z,20.63
2018-10-07T00:58:41.952Z,15.87
2018-10-07T01:01:11.059Z,17.37
2018-10-07T01:03:40.430Z,13.60
2018-10-07T01:06:09.548Z,15.37
2018-10-07T01:08:39.431Z,16.57
2018-10-07T01:11:08.572Z,15.03
2018-10-07T01:13:38.307Z,12.33
2018-10-07T01:16:07.482Z,18.73
2018-10-07T01:18:36.618Z,16.83
2018-10-07T01:21:05.796Z,25.00
2018-10-07T01:23:35.150Z,19.13
2018-10-07T01:26:04.320Z,16.37
2018-10-07T01:28:33.419Z,16.17
2018-10-07T01:31:03.514Z,19.73
2018-10-07T01:33:32.619Z,21.80
2018-10-07T01:36:01.702Z,19.97
2018-10-07T01:38:30.852Z,14.10
2018-10-07T01:40:59.976Z,15.27
2018-10-07T01:43:29.107Z,16.27
2018-10-07T01:45:58.698Z,21.10
2018-10-07T01:48:27.806Z,17.40
2018-10-07T01:50:56.937Z,22.00
2018-10-07T01:53:26.153Z,16.30
2018-10-07T01:55:55.297Z,13.27
2018-10-07T01:58:24.396Z,14.50
2018-10-07T02:00:53.500Z,15.73
2018-10-07T02:03:22.593Z,14.60
2018-10-07T02:05:51.680Z,16.20
2018-10-07T02:08:21.078Z,20.53
2018-10-07T02:10:50.194Z,16.07
2018-10-07T02:13:19.286Z,13.73
2018-10-07T02:15:48.789Z,18.97
2018-10-07T02:18:17.930Z,17.43
2018-10-07T02:20:47.981Z,15.70
2018-10-07T02:23:17.070Z,15.47
2018-10-07T02:25:46.169Z,18.13
2018-10-07T02:28:15.320Z,19.80
2018-10-07T02:30:44.408Z,19.47
2018-10-07T02:33:13.529Z,15.40
2018-10-07T02:35:42.651Z,19.27
2018-10-07T02:38:11.770Z,15.20
2018-10-07T02:40:42.179Z,17.20
2018-10-07T02:43:11.406Z,16.53
2018-10-07T02:45:40.540Z,16.23
2018-10-07T02:48:09.749Z,17.97
2018-10-07T02:50:40.028Z,20.10
2018-10-07T02:53:09.211Z,25.33
2018-10-07T02:55:38.451Z,14.63
2018-10-07T02:58:07.981Z,16.93
2018-10-07T03:00:37.110Z,16.70
2018-10-07T03:03:06.421Z,17.00
2018-10-07T03:05:35.600Z,26.40
2018-10-07T03:08:04.709Z,22.73
2018-10-07T03:10:33.817Z,18.80
2018-10-07T03:13:02.922Z,21.13
2018-10-07T03:15:32.044Z,17.50
2018-10-07T03:18:01.409Z,17.73
2018-10-07T03:20:31.464Z,16.73
2018-10-07T03:23:00.554Z,15.83
2018-10-07T03:25:29.692Z,27.27
2018-10-07T03:27:58.914Z,15.83
2018-10-07T03:30:27.989Z,17.13
2018-10-07T03:32:57.162Z,18.60
2018-10-07T03:35:26.248Z,22.87
2018-10-07T03:37:55.366Z,15.43
2018-10-07T03:40:24.453Z,19.00
2018-10-07T03:42:53.541Z,23.47
2018-10-07T03:45:23.369Z,19.67
2018-10-07T03:47:52.504Z,16.27
2018-10-07T03:50:21.622Z,17.33
2018-10-07T03:52:51.053Z,21.00
2018-10-07T03:55:20.116Z,18.50
2018-10-07T03:57:49.236Z,19.13
2018-10-07T04:00:18.382Z,16.43
2018-10-07T04:02:47.527Z,18.27
2018-10-07T04:05:16.677Z,26.40
2018-10-07T04:07:45.764Z,14.50
2018-10-07T04:10:14.871Z,15.23
2018-10-07T04:12:43.953Z,20.07
2018-10-07T04:15:13.049Z,21.17
2018-10-07T04:17:42.164Z,20.43
2018-10-07T04:20:12.057Z,23.90
2018-10-07T04:22:41.103Z,19.40
2018-10-07T04:25:10.291Z,17.00
2018-10-07T04:27:39.397Z,17.30
2018-10-07T04:30:08.534Z,18.40
2018-10-07T04:32:37.623Z,19.27
2018-10-07T04:35:06.690Z,58.03
2018-10-07T04:37:35.783Z,35.00
2018-10-07T04:40:05.040Z,17.50
2018-10-07T04:42:34.127Z,28.90
2018-10-07T04:45:03.293Z,22.20
2018-10-07T04:47:32.387Z,21.40
2018-10-07T04:50:01.499Z,29.13
2018-10-07T04:52:30.594Z,26.37
2018-10-07T04:54:59.693Z,25.27
2018-10-07T04:57:28.776Z,23.10
2018-10-07T04:59:57.915Z,20.60
2018-10-07T05:02:27.046Z,20.37
2018-10-07T05:04:57.810Z,24.57
2018-10-07T05:07:26.998Z,18.40
2018-10-07T05:10:07.120Z,20.00
2018-10-07T05:12:36.347Z,23.57
2018-10-07T05:15:06.981Z,19.90
2018-10-07T05:17:36.744Z,18.90
2018-10-07T05:20:06.042Z,17.87
2018-10-07T05:22:36.753Z,24.03
2018-10-07T05:25:05.904Z,21.60
2018-10-07T05:27:35.022Z,20.90
2018-10-07T05:30:04.226Z,17.50
2018-10-07T05:32:33.482Z,20.43
2018-10-07T05:35:02.550Z,20.53
2018-10-07T05:37:32.270Z,18.77
2018-10-07T05:40:01.367Z,20.23
2018-10-07T05:42:30.448Z,19.17
2018-10-07T05:44:59.604Z,19.50
2018-10-07T05:47:28.797Z,22.00
2018-10-07T05:49:57.865Z,18.63
2018-10-07T05:52:26.929Z,20.73
2018-10-07T05:54:56.071Z,25.80
2018-10-07T05:57:25.245Z,21.00
2018-10-07T05:59:54.407Z,23.70
2018-10-07T06:02:23.537Z,15.30
2018-10-07T06:04:54.081Z,26.10
2018-10-07T06:07:23.779Z,16.70
2018-10-07T06:09:52.927Z,18.93
2018-10-07T06:12:22.019Z,21.70
2018-10-07T06:15:02.289Z,18.20
2018-10-07T06:17:31.351Z,19.57
2018-10-07T06:20:00.458Z,22.20
2018-10-07T06:22:29.604Z,21.50
2018-10-07T06:24:58.907Z,19.07
2018-10-07T06:27:28.058Z,22.93
2018-10-07T06:29:57.204Z,19.37
2018-10-07T06:32:26.259Z,16.40
2018-10-07T06:34:55.412Z,23.20
2018-10-07T06:37:24.528Z,19.93
2018-10-07T06:39:53.698Z,21.07
2018-10-07T06:42:22.884Z,34.63
2018-10-07T06:44:51.988Z,17.70
2018-10-07T06:47:21.055Z,20.10
2018-10-07T06:49:50.154Z,23.23
2018-10-07T06:52:19.322Z,17.80
2018-10-07T06:54:48.422Z,21.47
2018-10-07T06:57:17.550Z,21.30
2018-10-07T06:59:47.663Z,20.27
2018-10-07T07:02:16.765Z,20.00
2018-10-07T07:04:46.765Z,21.80
2018-10-07T07:07:15.855Z,21.43
2018-10-07T07:09:44.925Z,25.43
2018-10-07T07:12:14.009Z,23.53
2018-10-07T07:14:43.122Z,18.37
2018-10-07T07:17:12.897Z,17.47
2018-10-07T07:19:42.014Z,17.17
2018-10-07T07:22:11.091Z,20.30
2018-10-07T07:24:40.178Z,29.40
2018-10-07T07:27:09.418Z,26.53
2018-10-07T07:29:38.489Z,22.80
2018-10-07T07:32:07.585Z,18.10
2018-10-07T07:34:36.649Z,21.13
2018-10-07T07:37:05.784Z,17.67
2018-10-07T07:39:34.856Z,19.60
2018-10-07T07:42:03.948Z,19.97
2018-10-07T07:44:33.028Z,19.37
2018-10-07T07:47:02.118Z,23.50
2018-10-07T07:49:31.238Z,22.77
2018-10-07T07:52:00.351Z,22.70
2018-10-07T07:54:29.954Z,16.70
2018-10-07T07:56:59.056Z,19.10
2018-10-07T07:59:28.458Z,23.50
2018-10-07T08:01:57.541Z,23.40
2018-10-07T08:04:27.358Z,18.30
2018-10-07T08:06:56.499Z,25.37
2018-10-07T08:09:25.561Z,21.93
2018-10-07T08:11:54.703Z,22.67
2018-10-07T08:14:23.793Z,21.07
2018-10-07T08:16:52.892Z,16.67
2018-10-07T08:19:21.959Z,18.43
2018-10-07T08:21:51.039Z,17.23
2018-10-07T08:24:20.134Z,19.70
2018-10-07T08:26:49.293Z,18.30
2018-10-07T08:29:18.835Z,17.27
2018-10-07T08:31:47.948Z,19.60
2018-10-07T08:34:17.049Z,19.10
2018-10-07T08:36:46.139Z,17.80
2018-10-07T08:39:15.253Z,16.13
2018-10-07T08:41:44.373Z,14.27
2018-10-07T08:44:13.461Z,18.70
2018-10-07T08:46:42.537Z,14.40
2018-10-07T08:49:11.635Z,17.70
2018-10-07T08:51:40.713Z,11.00
2018-10-07T08:54:09.925Z,14.57
2018-10-07T08:56:39.014Z,10.73
2018-10-07T08:59:08.107Z,11.03
2018-10-07T09:01:37.192Z,8.43
2018-10-07T09:04:06.499Z,10.57
2018-10-07T09:06:35.769Z,7.37
2018-10-07T09:09:07.373Z,7.40
2018-10-07T09:11:36.477Z,12.50
2018-10-07T09:14:05.620Z,11.33
2018-10-07T09:16:34.700Z,9.17
2018-10-07T09:19:03.878Z,8.30
2018-10-07T09:21:32.976Z,11.60
2018-10-07T09:24:02.071Z,9.23
2018-10-07T09:26:31.161Z,11.33
2018-10-07T09:29:00.282Z,9.77
2018-10-07T09:31:29.577Z,14.27
2018-10-07T09:33:58.693Z,23.90
2018-10-07T09:36:27.767Z,11.10
2018-10-07T09:38:56.846Z,8.27
2018-10-07T09:41:26.049Z,8.37
2018-10-07T09:43:55.126Z,9.43
2018-10-07T09:46:24.337Z,7.83
2018-10-07T09:48:53.517Z,10.83
2018-10-07T09:51:22.585Z,7.27
2018-10-07T09:53:51.722Z,10.30
2018-10-07T09:56:20.819Z,7.67
2018-10-07T09:58:49.893Z,7.53
2018-10-07T10:01:20.071Z,7.80
2018-10-07T10:03:49.010Z,6.30
2018-10-07T10:06:18.127Z,10.43
2018-10-07T10:08:47.207Z,7.30
2018-10-07T10:11:16.375Z,8.37
2018-10-07T10:13:45.407Z,9.40
2018-10-07T10:16:14.505Z,9.97
2018-10-07T10:18:48.438Z,14.70
2018-10-07T10:21:33.330Z,8.93
2018-10-07T10:24:07.335Z,8.37
2018-10-07T10:26:41.926Z,6.50
2018-10-07T10:29:29.480Z,6.20
2018-10-07T10:32:05.319Z,5.97
2018-10-07T10:36:44.594Z,6.17
2018-10-07T10:40:04.634Z,5.70
2018-10-07T10:44:42.456Z,5.43
2018-10-07T10:47:19.649Z,6.43
2018-10-07T10:49:54.157Z,5.07
2018-10-07T10:52:31.964Z,4.77
2018-10-07T10:55:37.593Z,8.13
2018-10-07T10:58:10.092Z,4.10
2018-10-07T11:00:43.579Z,3.97
2018-10-07T11:03:39.377Z,4.30
2018-10-07T11:06:20.088Z,5.43
2018-10-07T11:09:57.462Z,4.33
2018-10-07T11:12:34.443Z,5.20
2018-10-07T11:15:18.074Z,5.27
2018-10-07T11:18:01.021Z,4.30
2018-10-07T11:22:45.943Z,3.40
2018-10-07T11:25:42.117Z,7.87
2018-10-07T11:28:21.475Z,4.80
2018-10-07T11:30:56.498Z,5.93
2018-10-07T11:34:02.960Z,3.27
2018-10-07T11:37:12.693Z,4.70
2018-10-07T11:39:51.613Z,3.33
2018-10-07T11:42:31.581Z,3.57
2018-10-07T11:45:09.131Z,5.00
2018-10-07T11:48:01.905Z,3.50
2018-10-07T11:50:40.477Z,5.00
2018-10-07T11:53:20.571Z,4.00
2018-10-07T11:55:49.660Z,4.77
2018-10-07T11:58:18.741Z,4.10
2018-10-07T12:00:47.869Z,4.40
2018-10-07T12:03:17.511Z,3.93
2018-10-07T12:05:46.620Z,5.07
2018-10-07T12:08:15.770Z,4.57
2018-10-07T12:10:44.942Z,3.80
2018-10-07T12:13:14.645Z,4.10
2018-10-07T12:15:43.773Z,6.60
2018-10-07T12:18:13.245Z,4.73
2018-10-07T12:20:42.350Z,4.10
2018-10-07T12:23:11.608Z,3.73
2018-10-07T12:25:40.756Z,5.37
2018-10-07T12:28:10.249Z,4.13
2018-10-07T12:30:39.352Z,3.73
2018-10-07T12:33:08.520Z,3.10
2018-10-07T12:35:37.805Z,5.67
2018-10-07T12:38:06.923Z,6.07
2018-10-07T12:40:36.022Z,3.17
2018-10-07T12:43:05.139Z,5.40
2018-10-07T12:45:34.263Z,9.40
2018-10-07T12:48:03.473Z,3.17
2018-10-07T12:50:32.612Z,3.93
2018-10-07T12:53:03.407Z,4.43
2018-10-07T12:55:32.602Z,3.70
2018-10-07T12:58:01.771Z,4.27
2018-10-07T13:00:30.997Z,5.90
2018-10-07T13:03:00.353Z,3.83
2018-10-07T13:05:29.614Z,5.67
2018-10-07T13:07:58.783Z,4.50
2018-10-07T13:10:27.966Z,6.90
2018-10-07T13:12:57.105Z,8.23
2018-10-07T13:15:26.189Z,5.47
2018-10-07T13:17:55.285Z,4.50
2018-10-07T13:20:24.372Z,6.50
2018-10-07T13:22:53.719Z,5.60
2018-10-07T13:25:22.841Z,7.83
2018-10-07T13:27:52.737Z,4.33
2018-10-07T13:30:21.797Z,4.37
2018-10-07T13:32:50.940Z,5.37
2018-10-07T13:35:20.035Z,6.10
2018-10-07T13:37:49.315Z,3.90
2018-10-07T13:40:18.440Z,3.90
2018-10-07T13:42:47.523Z,4.40
2018-10-07T13:45:16.636Z,6.77
2018-10-07T13:47:45.765Z,6.00
2018-10-07T13:50:14.923Z,9.13
2018-10-07T13:52:44.760Z,8.80
2018-10-07T13:55:13.853Z,6.33
2018-10-07T13:57:42.979Z,5.43
2018-10-07T14:00:12.139Z,3.80
2018-10-07T14:02:41.253Z,7.13
2018-10-07T14:05:11.175Z,4.63
2018-10-07T14:07:40.433Z,6.10
2018-10-07T14:10:09.583Z,4.90
2018-10-07T14:12:38.781Z,4.07
2018-10-07T14:15:08.161Z,5.83
2018-10-07T14:17:37.281Z,7.00
2018-10-07T14:20:06.408Z,4.00
2018-10-07T14:22:35.513Z,3.40
2018-10-07T14:25:04.736Z,3.90
2018-10-07T14:27:34.488Z,3.20
2018-10-07T14:30:03.730Z,3.47
2018-10-07T14:32:33.285Z,3.40
2018-10-07T14:35:02.630Z,7.80
2018-10-07T14:37:31.785Z,5.30
2018-10-07T14:40:01.023Z,4.50
2018-10-07T14:42:30.310Z,5.47
2018-10-07T14:44:59.675Z,3.60
2018-10-07T14:47:28.877Z,4.90
2018-10-07T14:49:58.681Z,6.70
2018-10-07T14:52:28.013Z,7.47
2018-10-07T14:54:57.674Z,4.50
2018-10-07T14:57:26.797Z,7.90
2018-10-07T14:59:55.937Z,4.07
2018-10-07T15:02:25.036Z,4.10
2018-10-07T15:04:54.464Z,3.30
2018-10-07T15:07:23.631Z,2.90
2018-10-07T15:09:52.708Z,6.70
2018-10-07T15:12:21.869Z,4.70
2018-10-07T15:14:51.022Z,3.40
2018-10-07T15:17:20.592Z,4.33
2018-10-07T15:19:49.853Z,5.10
2018-10-07T15:22:19.056Z,4.97
2018-10-07T15:24:49.417Z,7.20
2018-10-07T15:27:19.884Z,5.83
2018-10-07T15:29:48.934Z,5.47
2018-10-07T15:32:18.011Z,3.50
2018-10-07T15:34:47.116Z,3.67
2018-10-07T15:37:16.161Z,12.63
2018-10-07T15:39:45.290Z,12.43
2018-10-07T15:42:14.482Z,3.97
2018-10-07T15:44:43.593Z,5.83
2018-10-07T15:47:12.672Z,4.77
2018-10-07T15:49:41.781Z,3.20
2018-10-07T15:52:10.826Z,4.50
2018-10-07T15:54:39.949Z,4.53
2018-10-07T15:57:09.102Z,13.83
2018-10-07T15:59:38.169Z,10.63
2018-10-07T16:02:07.297Z,5.80
2018-10-07T16:04:36.411Z,6.60
2018-10-07T16:07:05.503Z,3.90
2018-10-07T16:09:34.611Z,8.33
2018-10-07T16:12:03.783Z,3.90
2018-10-07T16:14:32.852Z,4.57
2018-10-07T16:17:01.913Z,5.43
2018-10-07T16:19:31.139Z,4.80
2018-10-07T16:22:00.221Z,8.93
2018-10-07T16:24:29.316Z,4.10
2018-10-07T16:26:58.373Z,8.60
2018-10-07T16:29:27.477Z,5.27
2018-10-07T16:31:56.583Z,5.13
2018-10-07T16:34:25.668Z,4.80
2018-10-07T16:36:54.784Z,6.27
2018-10-07T16:39:23.899Z,6.83
2018-10-07T16:41:52.953Z,5.00
2018-10-07T16:44:22.181Z,4.43
2018-10-07T16:46:51.302Z,7.23
2018-10-07T16:49:20.459Z,7.73
2018-10-07T16:51:49.505Z,5.60
2018-10-07T16:54:18.635Z,6.17
2018-10-07T16:56:47.787Z,5.53
2018-10-07T16:59:16.863Z,6.57
2018-10-07T17:01:45.994Z,5.27
2018-10-07T17:04:15.059Z,7.67
2018-10-07T17:06:44.159Z,6.30
2018-10-07T17:09:13.255Z,11.73
2018-10-07T17:11:42.375Z,10.03
2018-10-07T17:14:11.507Z,6.13
2018-10-07T17:16:40.596Z,6.57
2018-10-07T17:19:09.705Z,7.20
2018-10-07T17:21:38.793Z,9.90
2018-10-07T17:24:07.855Z,5.73
2018-10-07T17:26:37.089Z,14.23
2018-10-07T17:29:06.559Z,6.50
2018-10-07T17:31:36.047Z,5.87
2018-10-07T17:34:05.127Z,7.37
2018-10-07T17:36:34.239Z,5.80
2018-10-07T17:39:03.532Z,8.40
2018-10-07T17:41:32.633Z,7.53
2018-10-07T17:44:01.738Z,14.67
2018-10-07T17:46:31.045Z,6.53
2018-10-07T17:49:00.251Z,9.27
2018-10-07T17:51:29.273Z,12.50
2018-10-07T17:53:58.383Z,7.63
2018-10-07T17:56:27.445Z,7.03
2018-10-07T17:58:56.545Z,7.83
2018-10-07T18:01:25.713Z,7.33
2018-10-07T18:03:55.820Z,7.77
2018-10-07T18:06:24.885Z,7.63
2018-10-07T18:08:53.982Z,9.17
2018-10-07T18:11:23.040Z,6.17
2018-10-07T18:13:52.114Z,12.60
2018-10-07T18:16:21.291Z,9.53
2018-10-07T18:18:50.393Z,6.20
2018-10-07T18:21:19.577Z,9.87
2018-10-07T18:23:48.561Z,6.43
2018-10-07T18:26:17.665Z,9.53
2018-10-07T18:28:46.780Z,7.10
2018-10-07T18:31:15.861Z,14.63
2018-10-07T18:33:45.161Z,7.20
2018-10-07T18:36:14.267Z,11.10
2018-10-07T18:38:43.358Z,10.43
2018-10-07T18:41:13.142Z,6.10
2018-10-07T18:43:42.357Z,7.33
2018-10-07T18:46:11.925Z,9.80
2018-10-07T18:48:41.136Z,7.20
2018-10-07T18:51:10.211Z,7.77
2018-10-07T18:53:39.320Z,8.37
2018-10-07T18:56:08.453Z,8.63
2018-10-07T18:58:37.608Z,9.40
2018-10-07T19:01:06.897Z,9.13
2018-10-07T19:03:36.235Z,7.17
2018-10-07T19:06:05.315Z,9.57
2018-10-07T19:08:34.700Z,10.00
2018-10-07T19:11:03.645Z,9.53
2018-10-07T19:13:32.830Z,8.37
2018-10-07T19:16:01.934Z,9.33
2018-10-07T19:18:31.027Z,6.73
2018-10-07T19:21:00.172Z,11.43
2018-10-07T19:23:29.258Z,9.73
2018-10-07T19:25:58.369Z,7.13
2018-10-07T19:28:27.523Z,7.20
2018-10-07T19:30:56.661Z,9.00
2018-10-07T19:33:25.729Z,6.73
2018-10-07T19:35:54.938Z,14.97
2018-10-07T19:38:24.055Z,13.90
2018-10-07T19:40:53.186Z,8.40
2018-10-07T19:43:22.325Z,8.53
2018-10-07T19:45:51.798Z,7.53
2018-10-07T19:48:20.945Z,10.77
2018-10-07T19:50:50.227Z,10.97
2018-10-07T19:53:19.429Z,10.50
2018-10-07T19:55:48.530Z,11.17
2018-10-07T19:58:18.584Z,7.37
2018-10-07T20:00:47.658Z,11.73
2018-10-07T20:03:16.805Z,12.70
2018-10-07T20:05:45.993Z,7.30
2018-10-07T20:08:15.337Z,7.60
2018-10-07T20:10:44.511Z,9.13
2018-10-07T20:13:13.644Z,7.43
2018-10-07T20:15:42.733Z,14.07
2018-10-07T20:18:12.159Z,10.63
2018-10-07T20:20:41.590Z,11.43
2018-10-07T20:23:10.775Z,8.83
2018-10-07T20:25:39.903Z,8.47
2018-10-07T20:28:09.067Z,16.17
2018-10-07T20:30:38.457Z,10.47
2018-10-07T20:33:07.803Z,10.30
2018-10-07T20:35:36.951Z,9.63
2018-10-07T20:38:06.419Z,8.03
2018-10-07T20:40:35.881Z,8.63
2018-10-07T20:43:05.051Z,8.23
2018-10-07T20:45:34.122Z,9.20
2018-10-07T20:48:03.277Z,11.00
2018-10-07T20:50:32.392Z,11.43
2018-10-07T20:53:01.846Z,8.60
2018-10-07T20:55:31.499Z,11.13
2018-10-07T20:58:00.677Z,11.63
2018-10-07T21:00:29.753Z,9.83
2018-10-07T21:02:59.644Z,10.13
2018-10-07T21:05:28.757Z,10.10
2018-10-07T21:07:57.821Z,12.50
2018-10-07T21:10:26.922Z,9.67
2018-10-07T21:12:56.051Z,9.17
2018-10-07T21:15:25.194Z,10.67
2018-10-07T21:17:54.313Z,10.97
2018-10-07T21:20:23.377Z,9.50
2018-10-07T21:22:52.596Z,7.73
2018-10-07T21:25:22.609Z,9.90
2018-10-07T21:27:51.712Z,10.23
2018-10-07T21:30:20.801Z,13.33
2018-10-07T21:32:49.896Z,19.03
2018-10-07T21:35:18.974Z,10.87
2018-10-07T21:37:48.053Z,10.40
2018-10-07T21:40:17.186Z,8.03
2018-10-07T21:42:46.240Z,11.93
2018-10-07T21:45:15.293Z,9.57
2018-10-07T21:47:44.406Z,9.73
2018-10-07T21:50:13.454Z,14.53
2018-10-07T21:52:42.540Z,11.00
2018-10-07T21:55:12.111Z,11.20
2018-10-07T21:57:41.325Z,14.70
2018-10-07T22:00:10.745Z,10.20
2018-10-07T22:02:39.865Z,15.50
2018-10-07T22:05:09.483Z,8.23
2018-10-07T22:07:38.586Z,15.67
2018-10-07T22:10:07.737Z,10.50
2018-10-07T22:12:36.810Z,12.13
2018-10-07T22:15:05.935Z,14.13
2018-10-07T22:17:35.001Z,12.47
2018-10-07T22:20:04.222Z,12.97
2018-10-07T22:22:33.352Z,18.83
2018-10-07T22:25:02.429Z,12.03
2018-10-07T22:27:31.553Z,14.40
2018-10-07T22:30:00.630Z,10.20
2018-10-07T22:32:30.420Z,18.87
2018-10-07T22:34:59.495Z,13.50
2018-10-07T22:37:28.586Z,15.30
2018-10-07T22:39:57.664Z,12.93
2018-10-07T22:42:26.781Z,15.90
2018-10-07T22:44:55.899Z,12.93
2018-10-07T22:47:24.967Z,14.90
2018-10-07T22:49:54.989Z,19.23
2018-10-07T22:52:24.465Z,14.77
2018-10-07T22:54:53.556Z,16.43
2018-10-07T22:57:23.464Z,17.47
2018-10-07T22:59:52.559Z,21.33
2018-10-07T23:02:21.715Z,17.40
2018-10-07T23:04:50.794Z,15.37
2018-10-07T23:07:19.953Z,15.60
2018-10-07T23:09:49.021Z,15.53
2018-10-07T23:12:18.104Z,15.40
2018-10-07T23:14:47.240Z,19.40
2018-10-07T23:17:16.365Z,18.77
2018-10-07T23:19:45.682Z,18.57
2018-10-07T23:22:14.785Z,20.13
2018-10-07T23:24:43.926Z,23.37
2018-10-07T23:27:13.002Z,18.60
2018-10-07T23:29:42.122Z,21.20
2018-10-07T23:32:11.228Z,23.90
2018-10-07T23:34:40.325Z,21.10
2018-10-07T23:37:09.398Z,20.00
2018-10-07T23:39:38.532Z,22.30
2018-10-07T23:42:07.766Z,22.57
2018-10-07T23:44:36.855Z,23.10
2018-10-07T23:47:05.982Z,24.93
2018-10-07T23:49:35.044Z,61.73
2018-10-07T23:52:04.225Z,25.63
2018-10-07T23:54:33.218Z,26.27
2018-10-07T23:57:02.322Z,19.20
2018-10-07T23:59:31.806Z,26.43
